sensor_id;sensor_type;location;lat;lon;timestamp;pressure;altitude;pressure_sealevel;temperature;humidity
23953;BME280;12163;49.316;6.092;2023-06-10T00:01:52;98948.97;;;21.18;49.60
23953;BME280;12163;49.316;6.092;2023-06-10T00:04:21;98957.13;;;21.14;49.52
23953;BME280;12163;49.316;6.092;2023-06-10T00:06:48;98957.88;;;21.11;49.70
23953;BME280;12163;49.316;6.092;2023-06-10T00:09:15;98947.22;;;21.06;49.98
23953;BME280;12163;49.316;6.092;2023-06-10T00:11:42;98948.31;;;21.02;49.94
23953;BME280;12163;49.316;6.092;2023-06-10T00:14:09;98952.97;;;20.98;49.89
23953;BME280;12163;49.316;6.092;2023-06-10T00:16:36;98947.06;;;20.96;49.73
23953;BME280;12163;49.316;6.092;2023-06-10T00:19:04;98950.16;;;20.94;49.84
23953;BME280;12163;49.316;6.092;2023-06-10T00:21:33;98940.72;;;20.92;49.67
23953;BME280;12163;49.316;6.092;2023-06-10T00:24:08;98950.84;;;20.88;49.96
23953;BME280;12163;49.316;6.092;2023-06-10T00:26:39;98951.94;;;20.83;49.92
23953;BME280;12163;49.316;6.092;2023-06-10T00:29:07;98949.91;;;20.80;50.01
23953;BME280;12163;49.316;6.092;2023-06-10T00:31:36;98946.31;;;20.76;50.15
23953;BME280;12163;49.316;6.092;2023-06-10T00:34:02;98952.16;;;20.75;50.11
23953;BME280;12163;49.316;6.092;2023-06-10T00:36:29;98955.25;;;20.73;50.17
23953;BME280;12163;49.316;6.092;2023-06-10T00:38:57;98948.97;;;20.73;50.32
23953;BME280;12163;49.316;6.092;2023-06-10T00:41:24;98950.56;;;20.74;50.33
23953;BME280;12163;49.316;6.092;2023-06-10T00:43:52;98946.59;;;20.71;50.33
23953;BME280;12163;49.316;6.092;2023-06-10T00:46:20;98950.88;;;20.69;50.26
23953;BME280;12163;49.316;6.092;2023-06-10T00:48:47;98950.44;;;20.67;50.29
23953;BME280;12163;49.316;6.092;2023-06-10T00:51:15;98948.13;;;20.69;50.57
23953;BME280;12163;49.316;6.092;2023-06-10T00:53:43;98952.81;;;20.68;50.55
23953;BME280;12163;49.316;6.092;2023-06-10T00:56:10;98952.03;;;20.68;50.48
23953;BME280;12163;49.316;6.092;2023-06-10T00:58:37;98955.97;;;20.70;50.40
23953;BME280;12163;49.316;6.092;2023-06-10T01:01:04;98948.13;;;20.69;50.49
23953;BME280;12163;49.316;6.092;2023-06-10T01:03:31;98956.78;;;20.71;50.52
23953;BME280;12163;49.316;6.092;2023-06-10T01:09:21;98961.03;;;20.68;50.38
23953;BME280;12163;49.316;6.092;2023-06-10T01:11:58;98956.72;;;20.67;50.14
23953;BME280;12163;49.316;6.092;2023-06-10T01:14:29;98965.00;;;20.71;50.09
23953;BME280;12163;49.316;6.092;2023-06-10T01:16:58;98959.53;;;20.71;50.25
23953;BME280;12163;49.316;6.092;2023-06-10T01:19:26;98965.00;;;20.71;50.04
23953;BME280;12163;49.316;6.092;2023-06-10T01:21:54;98963.84;;;20.72;50.26
23953;BME280;12163;49.316;6.092;2023-06-10T01:24:21;98963.03;;;20.71;50.39
23953;BME280;12163;49.316;6.092;2023-06-10T01:26:49;98958.28;;;20.68;50.32
23953;BME280;12163;49.316;6.092;2023-06-10T01:29:27;98964.09;;;20.63;50.57
23953;BME280;12163;49.316;6.092;2023-06-10T01:32:04;98970.31;;;20.60;50.63
23953;BME280;12163;49.316;6.092;2023-06-10T01:34:33;98964.31;;;20.55;50.91
23953;BME280;12163;49.316;6.092;2023-06-10T01:37:00;98969.38;;;20.53;50.68
23953;BME280;12163;49.316;6.092;2023-06-10T01:39:28;98965.78;;;20.49;50.76
23953;BME280;12163;49.316;6.092;2023-06-10T01:41:55;98971.25;;;20.49;50.82
23953;BME280;12163;49.316;6.092;2023-06-10T01:44:23;98974.31;;;20.44;50.83
23953;BME280;12163;49.316;6.092;2023-06-10T01:46:50;98976.63;;;20.42;50.98
23953;BME280;12163;49.316;6.092;2023-06-10T01:49:17;98979.63;;;20.37;51.10
23953;BME280;12163;49.316;6.092;2023-06-10T01:51:43;98971.78;;;20.36;51.00
23953;BME280;12163;49.316;6.092;2023-06-10T01:54:10;98978.34;;;20.31;50.96
23953;BME280;12163;49.316;6.092;2023-06-10T01:56:36;98977.50;;;20.27;51.04
23953;BME280;12163;49.316;6.092;2023-06-10T01:59:03;98980.97;;;20.24;51.15
23953;BME280;12163;49.316;6.092;2023-06-10T02:01:30;98978.50;;;20.19;51.13
23953;BME280;12163;49.316;6.092;2023-06-10T02:03:56;98978.88;;;20.18;51.45
23953;BME280;12163;49.316;6.092;2023-06-10T02:06:23;98976.06;;;20.14;51.02
23953;BME280;12163;49.316;6.092;2023-06-10T02:08:50;98977.06;;;20.06;50.92
23953;BME280;12163;49.316;6.092;2023-06-10T02:11:16;98984.06;;;20.04;51.08
23953;BME280;12163;49.316;6.092;2023-06-10T02:13:43;98981.81;;;20.09;51.28
23953;BME280;12163;49.316;6.092;2023-06-10T02:16:09;98982.13;;;20.04;51.02
23953;BME280;12163;49.316;6.092;2023-06-10T02:18:41;98984.56;;;20.09;51.60
23953;BME280;12163;49.316;6.092;2023-06-10T02:21:09;98986.44;;;20.05;51.61
23953;BME280;12163;49.316;6.092;2023-06-10T02:23:37;98980.53;;;20.03;51.72
23953;BME280;12163;49.316;6.092;2023-06-10T02:26:03;98984.44;;;20.02;51.69
23953;BME280;12163;49.316;6.092;2023-06-10T02:28:30;98982.84;;;20.01;52.02
23953;BME280;12163;49.316;6.092;2023-06-10T02:30:57;98981.22;;;20.00;51.67
23953;BME280;12163;49.316;6.092;2023-06-10T02:33:23;98985.13;;;19.99;51.54
23953;BME280;12163;49.316;6.092;2023-06-10T02:35:50;98985.03;;;19.96;51.48
23953;BME280;12163;49.316;6.092;2023-06-10T02:38:17;98988.13;;;19.94;51.54
23953;BME280;12163;49.316;6.092;2023-06-10T02:40:44;98984.97;;;19.92;52.06
23953;BME280;12163;49.316;6.092;2023-06-10T02:43:11;98980.63;;;19.91;51.89
23953;BME280;12163;49.316;6.092;2023-06-10T02:45:38;98991.16;;;19.89;52.14
23953;BME280;12163;49.316;6.092;2023-06-10T02:48:04;98995.03;;;19.88;52.22
23953;BME280;12163;49.316;6.092;2023-06-10T02:50:31;98996.91;;;19.84;52.18
23953;BME280;12163;49.316;6.092;2023-06-10T02:52:58;98988.72;;;19.84;51.62
23953;BME280;12163;49.316;6.092;2023-06-10T02:55:24;98996.91;;;19.84;52.49
23953;BME280;12163;49.316;6.092;2023-06-10T02:57:53;98998.41;;;19.82;52.30
23953;BME280;12163;49.316;6.092;2023-06-10T03:00:20;98997.22;;;19.79;52.17
23953;BME280;12163;49.316;6.092;2023-06-10T03:02:48;98998.72;;;19.77;52.22
23953;BME280;12163;49.316;6.092;2023-06-10T03:05:15;99004.09;;;19.73;52.86
23953;BME280;12163;49.316;6.092;2023-06-10T03:07:43;99006.41;;;19.71;52.46
23953;BME280;12163;49.316;6.092;2023-06-10T03:10:10;99005.19;;;19.69;52.52
23953;BME280;12163;49.316;6.092;2023-06-10T03:12:36;99009.44;;;19.66;52.74
23953;BME280;12163;49.316;6.092;2023-06-10T03:15:03;99014.91;;;19.66;53.10
23953;BME280;12163;49.316;6.092;2023-06-10T03:17:30;99016.41;;;19.64;52.98
23953;BME280;12163;49.316;6.092;2023-06-10T03:19:57;99006.97;;;19.61;52.99
23953;BME280;12163;49.316;6.092;2023-06-10T03:22:23;99015.19;;;19.61;53.28
23953;BME280;12163;49.316;6.092;2023-06-10T03:24:50;99015.53;;;19.60;53.42
23953;BME280;12163;49.316;6.092;2023-06-10T03:27:17;99017.06;;;19.57;53.24
23953;BME280;12163;49.316;6.092;2023-06-10T03:29:44;99018.91;;;19.53;53.76
23953;BME280;12163;49.316;6.092;2023-06-10T03:32:10;99016.09;;;19.50;53.81
23953;BME280;12163;49.316;6.092;2023-06-10T03:34:37;99020.75;;;19.49;53.50
23953;BME280;12163;49.316;6.092;2023-06-10T03:37:04;99021.13;;;19.48;53.76
23953;BME280;12163;49.316;6.092;2023-06-10T03:39:32;99023.78;;;19.44;53.80
23953;BME280;12163;49.316;6.092;2023-06-10T03:41:59;99031.53;;;19.42;53.58
23953;BME280;12163;49.316;6.092;2023-06-10T03:44:25;99022.19;;;19.43;54.03
23953;BME280;12163;49.316;6.092;2023-06-10T03:46:52;99026.50;;;19.44;54.46
23953;BME280;12163;49.316;6.092;2023-06-10T03:49:19;99032.41;;;19.46;54.36
23953;BME280;12163;49.316;6.092;2023-06-10T03:51:46;99035.97;;;19.47;54.08
23953;BME280;12163;49.316;6.092;2023-06-10T03:54:12;99027.03;;;19.50;54.23
23953;BME280;12163;49.316;6.092;2023-06-10T03:56:39;99029.41;;;19.51;54.03
23953;BME280;12163;49.316;6.092;2023-06-10T03:59:06;99041.94;;;19.52;54.13
23953;BME280;12163;49.316;6.092;2023-06-10T04:01:33;99035.78;;;19.55;54.11
23953;BME280;12163;49.316;6.092;2023-06-10T04:04:01;99033.03;;;19.55;54.69
23953;BME280;12163;49.316;6.092;2023-06-10T04:06:28;99040.44;;;19.55;54.36
23953;BME280;12163;49.316;6.092;2023-06-10T04:08:55;99034.88;;;19.51;54.16
23953;BME280;12163;49.316;6.092;2023-06-10T04:11:26;99038.09;;;19.53;54.28
23953;BME280;12163;49.316;6.092;2023-06-10T04:13:53;99038.09;;;19.53;54.44
23953;BME280;12163;49.316;6.092;2023-06-10T04:16:20;99040.53;;;19.58;54.64
23953;BME280;12163;49.316;6.092;2023-06-10T04:18:47;99044.56;;;19.64;54.70
23953;BME280;12163;49.316;6.092;2023-06-10T04:21:14;99045.38;;;19.65;54.79
23953;BME280;12163;49.316;6.092;2023-06-10T04:23:41;99053.31;;;19.70;54.63
23953;BME280;12163;49.316;6.092;2023-06-10T04:26:07;99042.44;;;19.73;54.93
23953;BME280;12163;49.316;6.092;2023-06-10T04:28:34;99051.34;;;19.70;54.50
23953;BME280;12163;49.316;6.092;2023-06-10T04:31:00;99051.97;;;19.79;54.56
23953;BME280;12163;49.316;6.092;2023-06-10T04:33:28;99060.78;;;19.88;54.55
23953;BME280;12163;49.316;6.092;2023-06-10T04:35:54;99049.19;;;19.95;54.62
23953;BME280;12163;49.316;6.092;2023-06-10T04:38:21;99054.84;;;20.02;54.38
23953;BME280;12163;49.316;6.092;2023-06-10T04:40:48;99060.91;;;20.11;54.05
23953;BME280;12163;49.316;6.092;2023-06-10T04:43:14;99061.78;;;20.15;54.27
23953;BME280;12163;49.316;6.092;2023-06-10T04:45:42;99056.97;;;20.46;53.56
23953;BME280;12163;49.316;6.092;2023-06-10T04:48:11;99055.72;;;20.44;53.46
23953;BME280;12163;49.316;6.092;2023-06-10T04:50:38;99058.16;;;20.67;54.24
23953;BME280;12163;49.316;6.092;2023-06-10T04:53:05;99053.78;;;21.04;53.67
23953;BME280;12163;49.316;6.092;2023-06-10T04:55:32;99054.94;;;21.48;52.62
23953;BME280;12163;49.316;6.092;2023-06-10T04:58:00;99059.44;;;21.86;51.32
23953;BME280;12163;49.316;6.092;2023-06-10T05:00:27;99057.09;;;22.14;50.38
23953;BME280;12163;49.316;6.092;2023-06-10T05:02:54;99052.97;;;22.59;49.29
23953;BME280;12163;49.316;6.092;2023-06-10T05:05:20;99055.47;;;22.71;48.15
23953;BME280;12163;49.316;6.092;2023-06-10T05:07:47;99053.25;;;22.84;47.85
23953;BME280;12163;49.316;6.092;2023-06-10T05:10:14;99053.41;;;22.98;47.21
23953;BME280;12163;49.316;6.092;2023-06-10T05:12:41;99054.00;;;23.17;46.36
23953;BME280;12163;49.316;6.092;2023-06-10T05:15:08;99053.38;;;23.34;45.67
23953;BME280;12163;49.316;6.092;2023-06-10T05:17:35;99056.19;;;23.41;45.43
23953;BME280;12163;49.316;6.092;2023-06-10T05:20:02;99056.19;;;23.41;45.36
23953;BME280;12163;49.316;6.092;2023-06-10T05:22:30;99068.84;;;23.49;44.80
23953;BME280;12163;49.316;6.092;2023-06-10T05:24:56;99068.88;;;23.53;44.44
23953;BME280;12163;49.316;6.092;2023-06-10T05:27:23;99070.50;;;23.57;44.82
23953;BME280;12163;49.316;6.092;2023-06-10T05:29:50;99065.81;;;23.65;44.34
23953;BME280;12163;49.316;6.092;2023-06-10T05:32:18;99059.59;;;23.75;44.09
23953;BME280;12163;49.316;6.092;2023-06-10T05:34:44;99063.63;;;23.84;44.03
23953;BME280;12163;49.316;6.092;2023-06-10T05:37:12;99056.56;;;23.90;44.00
23953;BME280;12163;49.316;6.092;2023-06-10T05:39:40;99060.56;;;24.00;44.07
23953;BME280;12163;49.316;6.092;2023-06-10T05:42:07;99063.38;;;24.10;43.31
23953;BME280;12163;49.316;6.092;2023-06-10T05:44:34;99063.00;;;24.15;43.42
23953;BME280;12163;49.316;6.092;2023-06-10T05:47:01;99059.91;;;24.20;43.50
23953;BME280;12163;49.316;6.092;2023-06-10T05:49:28;99061.50;;;24.24;43.26
23953;BME280;12163;49.316;6.092;2023-06-10T05:51:55;99063.84;;;24.22;43.39
23953;BME280;12163;49.316;6.092;2023-06-10T05:54:22;99060.72;;;24.24;43.08
23953;BME280;12163;49.316;6.092;2023-06-10T05:56:49;99061.50;;;24.28;42.81
23953;BME280;12163;49.316;6.092;2023-06-10T05:59:16;99071.38;;;24.29;43.10
23953;BME280;12163;49.316;6.092;2023-06-10T06:01:42;99068.63;;;24.36;42.95
23953;BME280;12163;49.316;6.092;2023-06-10T06:04:09;99075.78;;;24.44;42.61
23953;BME280;12163;49.316;6.092;2023-06-10T06:06:39;99074.59;;;24.45;42.65
23953;BME280;12163;49.316;6.092;2023-06-10T06:09:06;99071.84;;;24.48;42.64
23953;BME280;12163;49.316;6.092;2023-06-10T06:11:34;99078.94;;;24.49;42.79
23953;BME280;12163;49.316;6.092;2023-06-10T06:14:01;99068.75;;;24.57;42.38
23953;BME280;12163;49.316;6.092;2023-06-10T06:16:27;99071.13;;;24.58;42.39
23953;BME280;12163;49.316;6.092;2023-06-10T06:18:54;99064.38;;;24.49;42.71
23953;BME280;12163;49.316;6.092;2023-06-10T06:21:21;99066.72;;;24.50;42.64
23953;BME280;12163;49.316;6.092;2023-06-10T06:23:47;99072.66;;;24.52;42.71
23953;BME280;12163;49.316;6.092;2023-06-10T06:26:14;99065.94;;;24.43;42.52
23953;BME280;12163;49.316;6.092;2023-06-10T06:28:41;99071.41;;;24.39;42.51
23953;BME280;12163;49.316;6.092;2023-06-10T06:31:07;99073.41;;;24.42;42.67
23953;BME280;12163;49.316;6.092;2023-06-10T06:33:34;99067.84;;;24.39;43.03
23953;BME280;12163;49.316;6.092;2023-06-10T06:36:01;99072.63;;;24.42;42.52
23953;BME280;12163;49.316;6.092;2023-06-10T06:38:27;99069.84;;;24.45;42.41
23953;BME280;12163;49.316;6.092;2023-06-10T06:40:54;99076.59;;;24.48;42.31
23953;BME280;12163;49.316;6.092;2023-06-10T06:43:21;99078.22;;;24.56;42.40
23953;BME280;12163;49.316;6.092;2023-06-10T06:45:47;99078.22;;;24.63;41.89
23953;BME280;12163;49.316;6.092;2023-06-10T06:48:14;99076.69;;;24.72;41.91
23953;BME280;12163;49.316;6.092;2023-06-10T06:50:41;99079.88;;;24.78;41.94
23953;BME280;12163;49.316;6.092;2023-06-10T06:53:08;99082.25;;;24.83;41.69
23953;BME280;12163;49.316;6.092;2023-06-10T06:55:35;99078.28;;;24.84;41.61
23953;BME280;12163;49.316;6.092;2023-06-10T06:58:01;99083.06;;;24.87;41.28
23953;BME280;12163;49.316;6.092;2023-06-10T07:00:31;99079.88;;;24.85;41.65
23953;BME280;12163;49.316;6.092;2023-06-10T07:02:58;99082.66;;;24.81;41.22
23953;BME280;12163;49.316;6.092;2023-06-10T07:05:25;99085.78;;;24.80;41.55
23953;BME280;12163;49.316;6.092;2023-06-10T07:07:55;99088.56;;;24.83;41.68
23953;BME280;12163;49.316;6.092;2023-06-10T07:10:26;99080.69;;;24.89;41.52
23953;BME280;12163;49.316;6.092;2023-06-10T07:12:53;99088.59;;;24.87;41.52
23953;BME280;12163;49.316;6.092;2023-06-10T07:15:20;99084.22;;;24.86;41.70
23953;BME280;12163;49.316;6.092;2023-06-10T07:17:47;99094.47;;;24.85;42.02
23953;BME280;12163;49.316;6.092;2023-06-10T07:20:13;99098.03;;;24.89;41.87
23953;BME280;12163;49.316;6.092;2023-06-10T07:22:42;99091.75;;;24.96;42.09
23953;BME280;12163;49.316;6.092;2023-06-10T07:25:08;99085.06;;;25.07;42.46
23953;BME280;12163;49.316;6.092;2023-06-10T07:27:36;99093.81;;;25.20;42.09
23953;BME280;12163;49.316;6.092;2023-06-10T07:30:05;99090.69;;;25.32;41.69
23953;BME280;12163;49.316;6.092;2023-06-10T07:32:33;99091.06;;;25.34;41.84
23953;BME280;12163;49.316;6.092;2023-06-10T07:35:00;99083.97;;;25.61;41.16
23953;BME280;12163;49.316;6.092;2023-06-10T07:37:27;99091.88;;;25.59;41.33
23953;BME280;12163;49.316;6.092;2023-06-10T07:39:53;99089.06;;;25.62;41.47
23953;BME280;12163;49.316;6.092;2023-06-10T07:42:20;99095.44;;;25.84;40.74
23953;BME280;12163;49.316;6.092;2023-06-10T07:44:47;99090.25;;;25.72;41.30
23953;BME280;12163;49.316;6.092;2023-06-10T07:47:13;99091.06;;;25.76;41.48
23953;BME280;12163;49.316;6.092;2023-06-10T07:49:40;99091.84;;;25.83;41.50
23953;BME280;12163;49.316;6.092;2023-06-10T07:52:08;99085.94;;;25.92;40.51
23953;BME280;12163;49.316;6.092;2023-06-10T07:54:35;99086.72;;;25.95;40.57
23953;BME280;12163;49.316;6.092;2023-06-10T07:57:02;99092.25;;;26.02;41.01
23953;BME280;12163;49.316;6.092;2023-06-10T07:59:28;99092.63;;;26.11;40.56
23953;BME280;12163;49.316;6.092;2023-06-10T08:01:55;99103.28;;;26.09;40.54
23953;BME280;12163;49.316;6.092;2023-06-10T08:04:22;99096.53;;;26.17;40.36
23953;BME280;12163;49.316;6.092;2023-06-10T08:06:49;99093.38;;;26.26;39.38
23953;BME280;12163;49.316;6.092;2023-06-10T08:09:16;99089.38;;;26.37;39.27
23953;BME280;12163;49.316;6.092;2023-06-10T08:11:42;99089.38;;;26.51;38.23
23953;BME280;12163;49.316;6.092;2023-06-10T08:14:09;99085.75;;;26.61;38.08
23953;BME280;12163;49.316;6.092;2023-06-10T08:16:36;99084.56;;;26.66;38.36
23953;BME280;12163;49.316;6.092;2023-06-10T08:19:03;99086.47;;;26.83;37.89
23953;BME280;12163;49.316;6.092;2023-06-10T08:21:30;99088.41;;;26.89;37.45
23953;BME280;12163;49.316;6.092;2023-06-10T08:23:56;99087.19;;;26.94;36.88
23953;BME280;12163;49.316;6.092;2023-06-10T08:26:23;99089.94;;;26.97;36.74
23953;BME280;12163;49.316;6.092;2023-06-10T08:28:50;99085.00;;;27.29;35.87
23953;BME280;12163;49.316;6.092;2023-06-10T08:31:16;99080.94;;;27.44;35.70
23953;BME280;12163;49.316;6.092;2023-06-10T08:33:43;99074.72;;;27.30;35.10
23953;BME280;12163;49.316;6.092;2023-06-10T08:36:10;99080.28;;;27.26;35.79
23953;BME280;12163;49.316;6.092;2023-06-10T08:38:38;99077.84;;;27.35;36.18
23953;BME280;12163;49.316;6.092;2023-06-10T08:41:05;99069.78;;;27.51;35.98
23953;BME280;12163;49.316;6.092;2023-06-10T08:44:04;99073.72;;;27.57;35.64
23953;BME280;12163;49.316;6.092;2023-06-10T08:46:35;99077.31;;;27.54;35.33
23953;BME280;12163;49.316;6.092;2023-06-10T08:49:05;99080.88;;;27.51;35.12
23953;BME280;12163;49.316;6.092;2023-06-10T08:51:35;99073.34;;;27.52;35.63
23953;BME280;12163;49.316;6.092;2023-06-10T08:54:13;99069.66;;;27.69;35.37
23953;BME280;12163;49.316;6.092;2023-06-10T08:56:42;99068.75;;;27.82;35.42
23953;BME280;12163;49.316;6.092;2023-06-10T08:59:10;99072.56;;;27.98;35.07
23953;BME280;12163;49.316;6.092;2023-06-10T09:01:38;99072.81;;;28.11;34.72
23953;BME280;12163;49.316;6.092;2023-06-10T09:04:05;99067.59;;;28.20;34.24
23953;BME280;12163;49.316;6.092;2023-06-10T09:06:32;99059.63;;;28.22;34.31
23953;BME280;12163;49.316;6.092;2023-06-10T09:09:00;99059.53;;;28.29;33.64
23953;BME280;12163;49.316;6.092;2023-06-10T09:11:29;99060.75;;;28.28;33.63
23953;BME280;12163;49.316;6.092;2023-06-10T09:13:56;99053.94;;;28.36;33.93
23953;BME280;12163;49.316;6.092;2023-06-10T09:16:24;99057.00;;;28.45;33.54
23953;BME280;12163;49.316;6.092;2023-06-10T09:18:51;99056.22;;;28.44;33.32
23953;BME280;12163;49.316;6.092;2023-06-10T09:21:22;99055.34;;;28.51;33.55
23953;BME280;12163;49.316;6.092;2023-06-10T09:23:50;99057.19;;;28.61;33.18
23953;BME280;12163;49.316;6.092;2023-06-10T09:26:17;99055.06;;;28.72;32.62
23953;BME280;12163;49.316;6.092;2023-06-10T09:28:47;99057.28;;;28.84;32.36
23953;BME280;12163;49.316;6.092;2023-06-10T09:31:14;99050.47;;;28.92;32.60
23953;BME280;12163;49.316;6.092;2023-06-10T09:33:45;99062.66;;;28.98;32.41
23953;BME280;12163;49.316;6.092;2023-06-10T09:36:21;99052.59;;;29.07;31.97
23953;BME280;12163;49.316;6.092;2023-06-10T09:38:49;99047.31;;;29.16;31.75
23953;BME280;12163;49.316;6.092;2023-06-10T09:41:17;99047.09;;;29.30;31.81
23953;BME280;12163;49.316;6.092;2023-06-10T09:43:45;99042.09;;;29.45;31.01
23953;BME280;12163;49.316;6.092;2023-06-10T09:46:16;99044.50;;;29.43;31.27
23953;BME280;12163;49.316;6.092;2023-06-10T09:48:44;99042.47;;;29.47;31.00
23953;BME280;12163;49.316;6.092;2023-06-10T09:51:13;99038.03;;;29.53;31.30
23953;BME280;12163;49.316;6.092;2023-06-10T09:53:40;99052.94;;;29.62;30.80
23953;BME280;12163;49.316;6.092;2023-06-10T09:56:06;99045.75;;;29.64;30.41
23953;BME280;12163;49.316;6.092;2023-06-10T09:58:37;99040.53;;;29.66;30.21
23953;BME280;12163;49.316;6.092;2023-06-10T10:01:05;99038.38;;;29.77;30.51
23953;BME280;12163;49.316;6.092;2023-06-10T10:03:32;99036.00;;;29.76;30.58
23953;BME280;12163;49.316;6.092;2023-06-10T10:05:59;99043.09;;;29.80;30.52
23953;BME280;12163;49.316;6.092;2023-06-10T10:08:29;99040.03;;;29.94;30.65
23953;BME280;12163;49.316;6.092;2023-06-10T10:10:56;99036.03;;;29.95;30.45
23953;BME280;12163;49.316;6.092;2023-06-10T10:13:24;99034.75;;;30.03;30.55
23953;BME280;12163;49.316;6.092;2023-06-10T10:15:52;99036.00;;;30.18;30.20
23953;BME280;12163;49.316;6.092;2023-06-10T10:18:20;99032.09;;;30.35;29.43
23953;BME280;12163;49.316;6.092;2023-06-10T10:20:55;99031.59;;;30.40;29.21
23953;BME280;12163;49.316;6.092;2023-06-10T10:23:29;99034.25;;;30.47;29.24
23953;BME280;12163;49.316;6.092;2023-06-10T10:25:57;99030.94;;;30.52;29.06
23953;BME280;12163;49.316;6.092;2023-06-10T10:28:31;99028.03;;;30.59;28.99
23953;BME280;12163;49.316;6.092;2023-06-10T10:31:07;99024.53;;;30.55;28.76
23953;BME280;12163;49.316;6.092;2023-06-10T10:33:42;99030.03;;;30.39;28.01
23953;BME280;12163;49.316;6.092;2023-06-10T10:36:13;99031.75;;;30.33;28.40
23953;BME280;12163;49.316;6.092;2023-06-10T10:38:40;99025.31;;;30.36;28.13
23953;BME280;12163;49.316;6.092;2023-06-10T10:41:08;99020.38;;;30.44;28.92
23953;BME280;12163;49.316;6.092;2023-06-10T10:43:35;99028.16;;;30.52;29.20
23953;BME280;12163;49.316;6.092;2023-06-10T10:46:08;99036.41;;;30.59;28.97
23953;BME280;12163;49.316;6.092;2023-06-10T10:48:38;99021.47;;;30.69;28.22
23953;BME280;12163;49.316;6.092;2023-06-10T10:51:04;99024.28;;;30.85;28.27
23953;BME280;12163;49.316;6.092;2023-06-10T10:53:31;99016.13;;;30.94;28.49
23953;BME280;12163;49.316;6.092;2023-06-10T10:56:12;99023.72;;;31.10;28.44
23953;BME280;12163;49.316;6.092;2023-06-10T10:58:40;99033.06;;;31.19;27.94
23953;BME280;12163;49.316;6.092;2023-06-10T11:01:13;99021.22;;;31.15;27.68
23953;BME280;12163;49.316;6.092;2023-06-10T11:03:44;99025.25;;;31.14;27.80
23953;BME280;12163;49.316;6.092;2023-06-10T11:06:17;99020.88;;;31.13;28.21
23953;BME280;12163;49.316;6.092;2023-06-10T11:16:28;99015.44;;;31.06;28.48
23953;BME280;12163;49.316;6.092;2023-06-10T11:18:56;99014.53;;;31.29;28.14
23953;BME280;12163;49.316;6.092;2023-06-10T11:21:24;99013.72;;;31.28;27.97
23953;BME280;12163;49.316;6.092;2023-06-10T11:23:57;99019.22;;;31.32;27.73
23953;BME280;12163;49.316;6.092;2023-06-10T11:31:24;99010.94;;;31.60;26.60
23953;BME280;12163;49.316;6.092;2023-06-10T11:34:05;99015.84;;;31.40;26.90
23953;BME280;12163;49.316;6.092;2023-06-10T11:36:37;99022.19;;;31.41;27.20
23953;BME280;12163;49.316;6.092;2023-06-10T11:39:06;99008.34;;;31.53;27.36
23953;BME280;12163;49.316;6.092;2023-06-10T11:41:34;99011.75;;;31.45;26.59
23953;BME280;12163;49.316;6.092;2023-06-10T11:44:03;99021.75;;;31.26;27.07
23953;BME280;12163;49.316;6.092;2023-06-10T11:46:30;99003.44;;;31.25;27.40
23953;BME280;12163;49.316;6.092;2023-06-10T11:48:58;99009.03;;;31.25;27.54
23953;BME280;12163;49.316;6.092;2023-06-10T11:51:27;99015.91;;;31.37;27.62
23953;BME280;12163;49.316;6.092;2023-06-10T11:53:54;99017.59;;;31.34;27.58
23953;BME280;12163;49.316;6.092;2023-06-10T11:56:29;99005.38;;;31.44;27.62
23953;BME280;12163;49.316;6.092;2023-06-10T11:59:03;99004.50;;;31.47;27.36
23953;BME280;12163;49.316;6.092;2023-06-10T12:01:32;99004.31;;;31.38;27.57
23953;BME280;12163;49.316;6.092;2023-06-10T12:04:04;99000.66;;;31.41;26.69
23953;BME280;12163;49.316;6.092;2023-06-10T12:06:57;98992.31;;;31.41;26.77
23953;BME280;12163;49.316;6.092;2023-06-10T12:09:25;98999.63;;;31.35;27.09
23953;BME280;12163;49.316;6.092;2023-06-10T12:12:06;98994.56;;;31.46;26.63
23953;BME280;12163;49.316;6.092;2023-06-10T12:14:52;98988.03;;;31.68;26.68
23953;BME280;12163;49.316;6.092;2023-06-10T12:20:07;98982.28;;;32.45;26.34
23953;BME280;12163;49.316;6.092;2023-06-10T12:22:43;98979.31;;;32.77;25.54
23953;BME280;12163;49.316;6.092;2023-06-10T12:25:11;98975.88;;;32.85;24.97
23953;BME280;12163;49.316;6.092;2023-06-10T12:27:40;98977.75;;;32.76;25.38
23953;BME280;12163;49.316;6.092;2023-06-10T12:30:19;98985.19;;;32.54;25.12
23953;BME280;12163;49.316;6.092;2023-06-10T12:32:46;98971.88;;;32.33;25.36
23953;BME280;12163;49.316;6.092;2023-06-10T12:35:16;98975.53;;;32.17;25.90
23953;BME280;12163;49.316;6.092;2023-06-10T12:38:04;98977.75;;;31.94;25.97
23953;BME280;12163;49.316;6.092;2023-06-10T12:40:36;98978.03;;;31.83;26.20
23953;BME280;12163;49.316;6.092;2023-06-10T12:43:02;98973.03;;;31.91;26.09
23953;BME280;12163;49.316;6.092;2023-06-10T12:45:34;98975.25;;;32.12;25.89
23953;BME280;12163;49.316;6.092;2023-06-10T12:48:06;98969.50;;;32.19;26.14
23953;BME280;12163;49.316;6.092;2023-06-10T12:50:37;98966.94;;;32.24;26.13
23953;BME280;12163;49.316;6.092;2023-06-10T12:53:03;98973.78;;;32.48;25.61
23953;BME280;12163;49.316;6.092;2023-06-10T12:55:30;98972.47;;;32.65;25.63
23953;BME280;12163;49.316;6.092;2023-06-10T12:57:56;98975.31;;;32.78;25.20
23953;BME280;12163;49.316;6.092;2023-06-10T13:00:24;98969.78;;;32.62;25.32
23953;BME280;12163;49.316;6.092;2023-06-10T13:02:56;98962.25;;;32.34;25.49
23953;BME280;12163;49.316;6.092;2023-06-10T13:05:23;98963.19;;;32.15;25.86
23953;BME280;12163;49.316;6.092;2023-06-10T13:07:50;98963.13;;;32.18;25.88
23953;BME280;12163;49.316;6.092;2023-06-10T13:10:17;98952.66;;;32.35;25.41
23953;BME280;12163;49.316;6.092;2023-06-10T13:12:47;98952.81;;;32.56;25.14
23953;BME280;12163;49.316;6.092;2023-06-10T13:15:14;98942.31;;;32.85;24.29
23953;BME280;12163;49.316;6.092;2023-06-10T13:17:45;98943.88;;;32.99;24.10
23953;BME280;12163;49.316;6.092;2023-06-10T13:20:16;98939.28;;;33.05;23.45
23953;BME280;12163;49.316;6.092;2023-06-10T13:22:43;98944.66;;;33.12;22.42
23953;BME280;12163;49.316;6.092;2023-06-10T13:25:10;98928.66;;;33.25;22.24